Clara — V2GQ9 — position and weather

sailwx.info

Track history (hours):
 
Tides and Currents Weather Stations Pressure Air Temp Water Temp Dewpoint Dewpoint Depression Visibility Wind Speed Wind Dir Waves Ship Positions

Clara

Last reported at 2017-Dec-11 03:58 UTC. Time now 2017-Dec-11 04:19 UTC.
Position N 57°09' W 002°05'.

Length 106 m; draft 6.1 m.

Type: Cargo ship. MMSI: 304054000.

Date/timePositionNaut miles runAvg speedWind from/ knotsBaromVisibWave heightAir tempDewpointWater temp
2017-Dec-11 03:58N 57°09' W 002°05'0 0.0
2017-Dec-11 03:28N 57°09' W 002°05'0 0.0
2017-Dec-11 03:01N 57°09' W 002°05'0 0.0
2017-Dec-11 02:31N 57°09' W 002°05'0 0.0
2017-Dec-11 02:00N 57°09' W 002°05'0 0.0
2017-Dec-11 01:30N 57°09' W 002°05'0 0.0
2017-Dec-11 01:00N 57°09' W 002°05'0 0.0
2017-Dec-11 00:30N 57°09' W 002°05'0 0.0
2017-Dec-11 00:00N 57°09' W 002°05'0 0.0
2017-Dec-10 23:30N 57°09' W 002°05'0 0.0
2017-Dec-10 23:00N 57°09' W 002°05'0 0.0
2017-Dec-10 22:30N 57°09' W 002°05'0 0.0
2017-Dec-10 22:00N 57°09' W 002°05'0 0.0
2017-Dec-10 21:30N 57°09' W 002°05'0 0.0
2017-Dec-10 21:00N 57°09' W 002°05'0 0.0
2017-Dec-10 20:30N 57°09' W 002°05'0 0.0
2017-Dec-10 20:00N 57°09' W 002°05'0 0.0
2017-Dec-10 19:30N 57°09' W 002°05'0 0.0
2017-Dec-10 19:00N 57°09' W 002°05'0 0.0
2017-Dec-10 18:30N 57°09' W 002°05'0 0.0
2017-Dec-10 18:00N 57°09' W 002°05'0 0.0
2017-Dec-10 17:30N 57°09' W 002°05'0 0.0
2017-Dec-10 17:00N 57°09' W 002°05'0 0.0
2017-Dec-10 16:30N 57°09' W 002°05'0 0.0
2017-Dec-10 16:00N 57°09' W 002°05'0 0.7
2017-Dec-10 15:30N 57°08' W 002°04'2 4.3
2017-Dec-10 15:00N 57°09' W 002°00'4 7.9
2017-Dec-10 14:30N 57°05' W 001°57'4 8.9
2017-Dec-10 14:00N 57°01' W 001°54'5 9.1
2017-Dec-10 13:28N 56°57' W 001°50'139 8.0
2017-Dec-09 19:59N 54°51' W 000°05'3 6.1
2017-Dec-09 19:30N 54°48' W 000°03'3 5.8
2017-Dec-09 19:00N 54°46' W 000°01'3 5.5
2017-Dec-09 18:30N 54°43' E 000°01'3 5.5
2017-Dec-09 18:00N 54°41' E 000°03'3 5.7
2017-Dec-09 17:30N 54°38' E 000°05'3 5.9
2017-Dec-09 17:00N 54°35' E 000°08'3 6.2
2017-Dec-09 16:30N 54°33' E 000°10'3 6.3
2017-Dec-09 16:00N 54°30' E 000°12'3 6.4
2017-Dec-09 15:30N 54°27' E 000°14'3 6.7
2017-Dec-09 15:00N 54°24' E 000°16'3 6.7
2017-Dec-09 14:30N 54°21' E 000°19'3 6.9
2017-Dec-09 14:00N 54°18' E 000°21'4 6.9
2017-Dec-09 13:28N 54°14' E 000°24'3 6.8
2017-Dec-09 13:00N 54°12' E 000°27'3 6.7
2017-Dec-09 12:30N 54°08' E 000°29'3 6.5
2017-Dec-09 12:00N 54°06' E 000°32'3 6.1
2017-Dec-09 11:30N 54°03' E 000°34'52 5.3
2017-Dec-09 01:43N 53°16' E 001°14'2 6.0
2017-Dec-09 01:22N 53°15' E 001°16'2 5.6
2017-Dec-09 01:00N 53°13' E 001°18'3 5.4
2017-Dec-09 00:30N 53°11' E 001°21'2 4.9
2017-Dec-09 00:00N 53°10' E 001°24'2 4.4
2017-Dec-08 23:30N 53°08' E 001°27'2 4.0
2017-Dec-08 23:00N 53°07' E 001°30'2 3.8
2017-Dec-08 22:30N 53°06' E 001°32'2 3.7
2017-Dec-08 22:00N 53°04' E 001°35'2 3.4
2017-Dec-08 21:30N 53°03' E 001°37'2 3.3
2017-Dec-08 21:00N 53°02' E 001°39'2 3.6
2017-Dec-08 20:30N 53°01' E 001°41'2 3.9
2017-Dec-08 20:00N 52°60' E 001°44'2 4.7
2017-Dec-08 19:30N 52°59' E 001°47'3 5.4
2017-Dec-08 19:00N 52°58' E 001°51'3 5.7
2017-Dec-08 18:30N 52°57' E 001°55'3 6.0
2017-Dec-08 18:00N 52°55' E 001°60'4 7.2
2017-Dec-08 17:30N 52°53' E 002°05'4 7.6
2017-Dec-08 17:00N 52°50' E 002°08'4 7.2
2017-Dec-08 16:27N 52°47' E 002°11'65 6.6
2017-Dec-08 06:31N 51°41' E 002°04'3 9.5
2017-Dec-08 06:14N 51°39' E 002°02'2 9.3
2017-Dec-08 06:00N 51°37' E 002°01'5 9.2
2017-Dec-08 05:30N 51°33' E 001°58'3 6.6
2017-Dec-08 05:00N 51°30' E 001°59'3 6.1
2017-Dec-08 04:30N 51°27' E 002°01'3 6.8
2017-Dec-08 04:00N 51°23' E 002°02'510.0
2017-Dec-08 03:30N 51°19' E 001°57'510.0
2017-Dec-08 03:00N 51°15' E 001°52'510.4
2017-Dec-08 02:30N 51°11' E 001°47'510.0
2017-Dec-08 02:00N 51°08' E 001°42'5 9.6
2017-Dec-08 01:30N 51°04' E 001°37'5 9.2
2017-Dec-08 01:00N 51°01' E 001°32'4 8.4
2017-Dec-08 00:29N 50°57' E 001°27'3 7.0
2017-Dec-08 00:00N 50°54' E 001°26'53 6.8
2017-Dec-07 16:13N 50°24' E 000°17'2 7.8
2017-Dec-07 15:59N 50°23' E 000°14'4 7.8
2017-Dec-07 15:30N 50°22' E 000°09'4 8.1
2017-Dec-07 15:00N 50°21' E 000°02'4 8.4
2017-Dec-07 14:29N 50°20' W 000°04'109 9.3
2017-Dec-07 02:41N 49°49' W 002°48'  
2017-Dec-03 19:42N 39°24' W 009°50'2 8.9
2017-Dec-03 19:30N 39°22' W 009°51'4 9.0
2017-Dec-03 19:00N 39°18' W 009°51'4 8.7
2017-Dec-03 18:30N 39°13' W 009°51'4 8.8
2017-Dec-03 18:00N 39°09' W 009°51'4 8.2
2017-Dec-03 17:30N 39°05' W 009°51'4 8.8
2017-Dec-03 17:00N 39°00' W 009°51'4 8.7
2017-Dec-03 16:30N 38°56' W 009°51'4 8.6
2017-Dec-03 16:00N 38°52' W 009°51'4 8.5
2017-Dec-03 15:30N 38°47' W 009°51'4 8.8
2017-Dec-03 15:00N 38°43' W 009°51'5 9.3
2017-Dec-03 14:30N 38°38' W 009°50'5 9.4
2017-Dec-03 14:00N 38°34' W 009°48'5 9.3
2017-Dec-03 13:30N 38°29' W 009°47'13 8.9
2017-Dec-03 12:03N 38°17' W 009°44'0 8.7
2017-Dec-03 12:00N 38°16' W 009°43'6 8.8
2017-Dec-03 11:16N 38°10' W 009°41'3 8.8
2017-Dec-03 10:54N 38°07' W 009°40'7 8.9
2017-Dec-03 10:05N 37°60' W 009°38'1 8.8
2017-Dec-03 10:00N 37°59' W 009°38'5 9.0
2017-Dec-03 09:24N 37°54' W 009°36'7 8.9
2017-Dec-03 08:37N 37°47' W 009°34'1 8.8
2017-Dec-03 08:29N 37°46' W 009°34'220 8.3
2017-Dec-02 05:53N 35°58' W 005°35'2 6.3
2017-Dec-02 05:30N 35°59' W 005°32'3 5.9
2017-Dec-02 05:00N 35°60' W 005°29'3 5.7
2017-Dec-02 04:30N 36°01' W 005°25'4 7.4
2017-Dec-02 04:00N 36°01' W 005°21'4 7.1
2017-Dec-02 03:30N 36°02' W 005°16'4 8.2
2017-Dec-02 03:00N 36°02' W 005°11'  
Track history (hours):
 
Tides and Currents Weather Stations Pressure Air Temp Water Temp Dewpoint Dewpoint Depression Visibility Wind Speed Wind Dir Waves Ship Positions

Clara

Last reported at 2017-Dec-11 03:58 UTC. Time now 2017-Dec-11 04:19 UTC.
Position N 57°09' W 002°05'.

Length 106 m; draft 6.1 m.

Type: Cargo ship. MMSI: 304054000.

Date/timePositionNaut miles runAvg speedWind from/ knotsBaromVisibWave heightAir tempDewpointWater temp
2017-Dec-11 03:58N 57°09' W 002°05'0 0.0
2017-Dec-11 03:28N 57°09' W 002°05'0 0.0
2017-Dec-11 03:01N 57°09' W 002°05'0 0.0
2017-Dec-11 02:31N 57°09' W 002°05'0 0.0
2017-Dec-11 02:00N 57°09' W 002°05'0 0.0
2017-Dec-11 01:30N 57°09' W 002°05'0 0.0
2017-Dec-11 01:00N 57°09' W 002°05'0 0.0
2017-Dec-11 00:30N 57°09' W 002°05'0 0.0
2017-Dec-11 00:00N 57°09' W 002°05'0 0.0
2017-Dec-10 23:30N 57°09' W 002°05'0 0.0
2017-Dec-10 23:00N 57°09' W 002°05'0 0.0
2017-Dec-10 22:30N 57°09' W 002°05'0 0.0
2017-Dec-10 22:00N 57°09' W 002°05'0 0.0
2017-Dec-10 21:30N 57°09' W 002°05'0 0.0
2017-Dec-10 21:00N 57°09' W 002°05'0 0.0
2017-Dec-10 20:30N 57°09' W 002°05'0 0.0
2017-Dec-10 20:00N 57°09' W 002°05'0 0.0
2017-Dec-10 19:30N 57°09' W 002°05'0 0.0
2017-Dec-10 19:00N 57°09' W 002°05'0 0.0
2017-Dec-10 18:30N 57°09' W 002°05'0 0.0
2017-Dec-10 18:00N 57°09' W 002°05'0 0.0
2017-Dec-10 17:30N 57°09' W 002°05'0 0.0
2017-Dec-10 17:00N 57°09' W 002°05'0 0.0
2017-Dec-10 16:30N 57°09' W 002°05'0 0.0
2017-Dec-10 16:00N 57°09' W 002°05'0 0.7
2017-Dec-10 15:30N 57°08' W 002°04'2 4.3
2017-Dec-10 15:00N 57°09' W 002°00'4 7.9
2017-Dec-10 14:30N 57°05' W 001°57'4 8.9
2017-Dec-10 14:00N 57°01' W 001°54'5 9.1
2017-Dec-10 13:28N 56°57' W 001°50'139 8.0
2017-Dec-09 19:59N 54°51' W 000°05'3 6.1
2017-Dec-09 19:30N 54°48' W 000°03'3 5.8
2017-Dec-09 19:00N 54°46' W 000°01'3 5.5
2017-Dec-09 18:30N 54°43' E 000°01'3 5.5
2017-Dec-09 18:00N 54°41' E 000°03'3 5.7
2017-Dec-09 17:30N 54°38' E 000°05'3 5.9
2017-Dec-09 17:00N 54°35' E 000°08'3 6.2
2017-Dec-09 16:30N 54°33' E 000°10'3 6.3
2017-Dec-09 16:00N 54°30' E 000°12'3 6.4
2017-Dec-09 15:30N 54°27' E 000°14'3 6.7
2017-Dec-09 15:00N 54°24' E 000°16'3 6.7
2017-Dec-09 14:30N 54°21' E 000°19'3 6.9
2017-Dec-09 14:00N 54°18' E 000°21'4 6.9
2017-Dec-09 13:28N 54°14' E 000°24'3 6.8
2017-Dec-09 13:00N 54°12' E 000°27'3 6.7
2017-Dec-09 12:30N 54°08' E 000°29'3 6.5
2017-Dec-09 12:00N 54°06' E 000°32'3 6.1
2017-Dec-09 11:30N 54°03' E 000°34'52 5.3
2017-Dec-09 01:43N 53°16' E 001°14'2 6.0
2017-Dec-09 01:22N 53°15' E 001°16'2 5.6
2017-Dec-09 01:00N 53°13' E 001°18'3 5.4
2017-Dec-09 00:30N 53°11' E 001°21'2 4.9
2017-Dec-09 00:00N 53°10' E 001°24'2 4.4
2017-Dec-08 23:30N 53°08' E 001°27'2 4.0
2017-Dec-08 23:00N 53°07' E 001°30'2 3.8
2017-Dec-08 22:30N 53°06' E 001°32'2 3.7
2017-Dec-08 22:00N 53°04' E 001°35'2 3.4
2017-Dec-08 21:30N 53°03' E 001°37'2 3.3
2017-Dec-08 21:00N 53°02' E 001°39'2 3.6
2017-Dec-08 20:30N 53°01' E 001°41'2 3.9
2017-Dec-08 20:00N 52°60' E 001°44'2 4.7
2017-Dec-08 19:30N 52°59' E 001°47'3 5.4
2017-Dec-08 19:00N 52°58' E 001°51'3 5.7
2017-Dec-08 18:30N 52°57' E 001°55'3 6.0
2017-Dec-08 18:00N 52°55' E 001°60'4 7.2
2017-Dec-08 17:30N 52°53' E 002°05'4 7.6
2017-Dec-08 17:00N 52°50' E 002°08'4 7.2
2017-Dec-08 16:27N 52°47' E 002°11'65 6.6
2017-Dec-08 06:31N 51°41' E 002°04'3 9.5
2017-Dec-08 06:14N 51°39' E 002°02'2 9.3
2017-Dec-08 06:00N 51°37' E 002°01'5 9.2
2017-Dec-08 05:30N 51°33' E 001°58'3 6.6
2017-Dec-08 05:00N 51°30' E 001°59'3 6.1
2017-Dec-08 04:30N 51°27' E 002°01'3 6.8
2017-Dec-08 04:00N 51°23' E 002°02'510.0
2017-Dec-08 03:30N 51°19' E 001°57'510.0
2017-Dec-08 03:00N 51°15' E 001°52'510.4
2017-Dec-08 02:30N 51°11' E 001°47'510.0
2017-Dec-08 02:00N 51°08' E 001°42'5 9.6
2017-Dec-08 01:30N 51°04' E 001°37'5 9.2
2017-Dec-08 01:00N 51°01' E 001°32'4 8.4
2017-Dec-08 00:29N 50°57' E 001°27'3 7.0
2017-Dec-08 00:00N 50°54' E 001°26'53 6.8
2017-Dec-07 16:13N 50°24' E 000°17'2 7.8
2017-Dec-07 15:59N 50°23' E 000°14'4 7.8
2017-Dec-07 15:30N 50°22' E 000°09'4 8.1
2017-Dec-07 15:00N 50°21' E 000°02'4 8.4
2017-Dec-07 14:29N 50°20' W 000°04'109 9.3
2017-Dec-07 02:41N 49°49' W 002°48'  
2017-Dec-03 19:42N 39°24' W 009°50'2 8.9
2017-Dec-03 19:30N 39°22' W 009°51'4 9.0
2017-Dec-03 19:00N 39°18' W 009°51'4 8.7
2017-Dec-03 18:30N 39°13' W 009°51'4 8.8
2017-Dec-03 18:00N 39°09' W 009°51'4 8.2
2017-Dec-03 17:30N 39°05' W 009°51'4 8.8
2017-Dec-03 17:00N 39°00' W 009°51'4 8.7
2017-Dec-03 16:30N 38°56' W 009°51'4 8.6
2017-Dec-03 16:00N 38°52' W 009°51'4 8.5
2017-Dec-03 15:30N 38°47' W 009°51'4 8.8
2017-Dec-03 15:00N 38°43' W 009°51'5 9.3
2017-Dec-03 14:30N 38°38' W 009°50'5 9.4
2017-Dec-03 14:00N 38°34' W 009°48'5 9.3
2017-Dec-03 13:30N 38°29' W 009°47'13 8.9
2017-Dec-03 12:03N 38°17' W 009°44'0 8.7
2017-Dec-03 12:00N 38°16' W 009°43'6 8.8
2017-Dec-03 11:16N 38°10' W 009°41'3 8.8
2017-Dec-03 10:54N 38°07' W 009°40'7 8.9
2017-Dec-03 10:05N 37°60' W 009°38'1 8.8
2017-Dec-03 10:00N 37°59' W 009°38'5 9.0
2017-Dec-03 09:24N 37°54' W 009°36'7 8.9
2017-Dec-03 08:37N 37°47' W 009°34'1 8.8
2017-Dec-03 08:29N 37°46' W 009°34'220 8.3
2017-Dec-02 05:53N 35°58' W 005°35'2 6.3
2017-Dec-02 05:30N 35°59' W 005°32'3 5.9
2017-Dec-02 05:00N 35°60' W 005°29'3 5.7
2017-Dec-02 04:30N 36°01' W 005°25'4 7.4
2017-Dec-02 04:00N 36°01' W 005°21'4 7.1
2017-Dec-02 03:30N 36°02' W 005°16'4 8.2
2017-Dec-02 03:00N 36°02' W 005°11'  

Dump ship's entire track history